« Back
NWS Peachtree City, Ga » Text Product » MCN Terminal Aerodrome Forecast


Printer-friendly Version
Current Version              Previous Versions:   1  2  3  4  5  6  7  8  9  

Terminal Aerodrome Forecast

211
FTUS42 KFFC 051127
TAFMCN
TAF
KMCN 051127Z 0512/0612 00000KT P6SM SKC
     FM051500 24006KT P6SM SCT050 SCT250 PROB30 0521/0601 6SM TSRA
      BKN050CB
     FM060200 22003KT P6SM BKN060=

USA.gov is the U.S. government's official web portal to all federal, state and local government web resources and services.